Aviation Digital Data Service (ADDS)

Output produced by METARs form (0943 UTC 23 July 2019)
found at http://www.aviationweather.gov/metar/data/
 
METAR text: UGTB 230930Z 30010KT 9999 SCT045CB OVC050 27/19 Q1012 NOSIG
Conditions at: UGTB (TBILISI/NOVO-AL , GE) observed 0930 UTC 23 July 2019
Temperature: 27.0°C (81°F)
Dewpoint: 19.0°C (66°F) [RH = 62%]
Pressure (altimeter): 29.88 inches Hg (1012.0 mb)
Winds: from the WNW (300 degrees) at 12 MPH (10 knots; 5.1 m/s)
Visibility: 6 or more miles (10+ km)
Ceiling: 5000 feet AGL
Clouds: scattered clouds at 4500 feet AGL
overcast cloud deck at 5000 feet AGL
Weather: no significant weather observed at this time

METAR text: UGTB 230900Z 31012KT 9999 SCT047CB OVC053 26/18 Q1012 NOSIG
Conditions at: UGTB (TBILISI/NOVO-AL , GE) observed 0900 UTC 23 July 2019
Temperature: 26.0°C (79°F)
Dewpoint: 18.0°C (64°F) [RH = 61%]
Pressure (altimeter): 29.88 inches Hg (1012.0 mb)
Winds: from the NW (310 degrees) at 14 MPH (12 knots; 6.2 m/s)
Visibility: 6 or more miles (10+ km)
Ceiling: 5300 feet AGL
Clouds: scattered clouds at 4700 feet AGL
overcast cloud deck at 5300 feet AGL
Weather: no significant weather observed at this time

METAR text: UGTB 230830Z 30012KT 9999 SCT049CB BKN061 27/19 Q1012 NOSIG
Conditions at: UGTB (TBILISI/NOVO-AL , GE) observed 0830 UTC 23 July 2019
Temperature: 27.0°C (81°F)
Dewpoint: 19.0°C (66°F) [RH = 62%]
Pressure (altimeter): 29.88 inches Hg (1012.0 mb)
Winds: from the WNW (300 degrees) at 14 MPH (12 knots; 6.2 m/s)
Visibility: 6 or more miles (10+ km)
Ceiling: 6100 feet AGL
Clouds: scattered clouds at 4900 feet AGL
broken clouds at 6100 feet AGL
Weather: no significant weather observed at this time

METAR text: UGTB 230800Z 31010KT 9999 SCT047 BKN055 26/18 Q1013 NOSIG
Conditions at: UGTB (TBILISI/NOVO-AL , GE) observed 0800 UTC 23 July 2019
Temperature: 26.0°C (79°F)
Dewpoint: 18.0°C (64°F) [RH = 61%]
Pressure (altimeter): 29.91 inches Hg (1013.0 mb)
Winds: from the NW (310 degrees) at 12 MPH (10 knots; 5.1 m/s)
Visibility: 6 or more miles (10+ km)
Ceiling: 5500 feet AGL
Clouds: scattered clouds at 4700 feet AGL
broken clouds at 5500 feet AGL
Weather: no significant weather observed at this time

METAR text: UGTB 230730Z 30012KT 9999 FEW045 BKN053 27/18 Q1013 NOSIG
Conditions at: UGTB (TBILISI/NOVO-AL , GE) observed 0730 UTC 23 July 2019
Temperature: 27.0°C (81°F)
Dewpoint: 18.0°C (64°F) [RH = 58%]
Pressure (altimeter): 29.91 inches Hg (1013.0 mb)
Winds: from the WNW (300 degrees) at 14 MPH (12 knots; 6.2 m/s)
Visibility: 6 or more miles (10+ km)
Ceiling: 5300 feet AGL
Clouds: few clouds at 4500 feet AGL
broken clouds at 5300 feet AGL
Weather: no significant weather observed at this time

METAR text: UGTB 230700Z 30011KT 9999 SCT043 BKN051 27/19 Q1013 NOSIG
Conditions at: UGTB (TBILISI/NOVO-AL , GE) observed 0700 UTC 23 July 2019
Temperature: 27.0°C (81°F)
Dewpoint: 19.0°C (66°F) [RH = 62%]
Pressure (altimeter): 29.91 inches Hg (1013.0 mb)
Winds: from the WNW (300 degrees) at 13 MPH (11 knots; 5.7 m/s)
Visibility: 6 or more miles (10+ km)
Ceiling: 5100 feet AGL
Clouds: scattered clouds at 4300 feet AGL
broken clouds at 5100 feet AGL
Weather: no significant weather observed at this time

METAR text: UGTB 230630Z 30013KT 9999 SCT043 27/19 Q1013 NOSIG
Conditions at: UGTB (TBILISI/NOVO-AL , GE) observed 0630 UTC 23 July 2019
Temperature: 27.0°C (81°F)
Dewpoint: 19.0°C (66°F) [RH = 62%]
Pressure (altimeter): 29.91 inches Hg (1013.0 mb)
Winds: from the WNW (300 degrees) at 15 MPH (13 knots; 6.7 m/s)
Visibility: 6 or more miles (10+ km)
Ceiling: at least 12,000 feet AGL
Clouds: scattered clouds at 4300 feet AGL
Weather: no significant weather observed at this time

METAR text: UGTB 230600Z 31013KT 9999 SCT067 25/18 Q1013 NOSIG
Conditions at: UGTB (TBILISI/NOVO-AL , GE) observed 0600 UTC 23 July 2019
Temperature: 25.0°C (77°F)
Dewpoint: 18.0°C (64°F) [RH = 65%]
Pressure (altimeter): 29.91 inches Hg (1013.0 mb)
Winds: from the NW (310 degrees) at 15 MPH (13 knots; 6.7 m/s)
Visibility: 6 or more miles (10+ km)
Ceiling: at least 12,000 feet AGL
Clouds: scattered clouds at 6700 feet AGL
Weather: no significant weather observed at this time

METAR text: UGTB 230530Z 30014KT 9999 SCT067 24/18 Q1014 NOSIG
Conditions at: UGTB (TBILISI/NOVO-AL , GE) observed 0530 UTC 23 July 2019
Temperature: 24.0°C (75°F)
Dewpoint: 18.0°C (64°F) [RH = 69%]
Pressure (altimeter): 29.94 inches Hg (1014.0 mb)
Winds: from the WNW (300 degrees) at 16 MPH (14 knots; 7.2 m/s)
Visibility: 6 or more miles (10+ km)
Ceiling: at least 12,000 feet AGL
Clouds: scattered clouds at 6700 feet AGL
Weather: no significant weather observed at this time

METAR text: UGTB 230500Z 31015KT 9999 BKN064 24/18 Q1013 NOSIG
Conditions at: UGTB (TBILISI/NOVO-AL , GE) observed 0500 UTC 23 July 2019
Temperature: 24.0°C (75°F)
Dewpoint: 18.0°C (64°F) [RH = 69%]
Pressure (altimeter): 29.91 inches Hg (1013.0 mb)
Winds: from the NW (310 degrees) at 17 MPH (15 knots; 7.7 m/s)
Visibility: 6 or more miles (10+ km)
Ceiling: 6400 feet AGL
Clouds: broken clouds at 6400 feet AGL
Weather: no significant weather observed at this time

METAR text: UGTB 230430Z 31013KT 9999 BKN062 BKN070 24/18 Q1013 NOSIG
Conditions at: UGTB (TBILISI/NOVO-AL , GE) observed 0430 UTC 23 July 2019
Temperature: 24.0°C (75°F)
Dewpoint: 18.0°C (64°F) [RH = 69%]
Pressure (altimeter): 29.91 inches Hg (1013.0 mb)
Winds: from the NW (310 degrees) at 15 MPH (13 knots; 6.7 m/s)
Visibility: 6 or more miles (10+ km)
Ceiling: 6200 feet AGL
Clouds: broken clouds at 6200 feet AGL
broken clouds at 7000 feet AGL
Weather: no significant weather observed at this time

METAR text: UGTB 230400Z 31014KT 9999 FEW037 BKN062 23/18 Q1014 NOSIG
Conditions at: UGTB (TBILISI/NOVO-AL , GE) observed 0400 UTC 23 July 2019
Temperature: 23.0°C (73°F)
Dewpoint: 18.0°C (64°F) [RH = 73%]
Pressure (altimeter): 29.94 inches Hg (1014.0 mb)
Winds: from the NW (310 degrees) at 16 MPH (14 knots; 7.2 m/s)
Visibility: 6 or more miles (10+ km)
Ceiling: 6200 feet AGL
Clouds: few clouds at 3700 feet AGL
broken clouds at 6200 feet AGL
Weather: no significant weather observed at this time

METAR text: UGTB 230330Z 31017KT 9999 FEW051 BKN061 23/18 Q1013 NOSIG
Conditions at: UGTB (TBILISI/NOVO-AL , GE) observed 0330 UTC 23 July 2019
Temperature: 23.0°C (73°F)
Dewpoint: 18.0°C (64°F) [RH = 73%]
Pressure (altimeter): 29.91 inches Hg (1013.0 mb)
Winds: from the NW (310 degrees) at 20 MPH (17 knots; 8.7 m/s)
Visibility: 6 or more miles (10+ km)
Ceiling: 6100 feet AGL
Clouds: few clouds at 5100 feet AGL
broken clouds at 6100 feet AGL
Weather: no significant weather observed at this time

METAR text: UGTB 230300Z 31016KT 9999 BKN054 23/18 Q1013 NOSIG
Conditions at: UGTB (TBILISI/NOVO-AL , GE) observed 0300 UTC 23 July 2019
Temperature: 23.0°C (73°F)
Dewpoint: 18.0°C (64°F) [RH = 73%]
Pressure (altimeter): 29.91 inches Hg (1013.0 mb)
Winds: from the NW (310 degrees) at 18 MPH (16 knots; 8.2 m/s)
Visibility: 6 or more miles (10+ km)
Ceiling: 5400 feet AGL
Clouds: broken clouds at 5400 feet AGL
Weather: no significant weather observed at this time

METAR text: UGTB 230230Z 31017KT 9999 FEW041 BKN062 23/18 Q1013 NOSIG
Conditions at: UGTB (TBILISI/NOVO-AL , GE) observed 0230 UTC 23 July 2019
Temperature: 23.0°C (73°F)
Dewpoint: 18.0°C (64°F) [RH = 73%]
Pressure (altimeter): 29.91 inches Hg (1013.0 mb)
Winds: from the NW (310 degrees) at 20 MPH (17 knots; 8.7 m/s)
Visibility: 6 or more miles (10+ km)
Ceiling: 6200 feet AGL
Clouds: few clouds at 4100 feet AGL
broken clouds at 6200 feet AGL
Weather: no significant weather observed at this time

METAR text: UGTB 230200Z 31016KT 9999 SCT043 BKN064 23/18 Q1013 NOSIG
Conditions at: UGTB (TBILISI/NOVO-AL , GE) observed 0200 UTC 23 July 2019
Temperature: 23.0°C (73°F)
Dewpoint: 18.0°C (64°F) [RH = 73%]
Pressure (altimeter): 29.91 inches Hg (1013.0 mb)
Winds: from the NW (310 degrees) at 18 MPH (16 knots; 8.2 m/s)
Visibility: 6 or more miles (10+ km)
Ceiling: 6400 feet AGL
Clouds: scattered clouds at 4300 feet AGL
broken clouds at 6400 feet AGL
Weather: no significant weather observed at this time

METAR text: UGTB 230130Z 31016KT 9999 BKN056CB 23/18 Q1013 NOSIG
Conditions at: UGTB (TBILISI/NOVO-AL , GE) observed 0130 UTC 23 July 2019
Temperature: 23.0°C (73°F)
Dewpoint: 18.0°C (64°F) [RH = 73%]
Pressure (altimeter): 29.91 inches Hg (1013.0 mb)
Winds: from the NW (310 degrees) at 18 MPH (16 knots; 8.2 m/s)
Visibility: 6 or more miles (10+ km)
Ceiling: 5600 feet AGL
Clouds: broken clouds at 5600 feet AGL
Weather: no significant weather observed at this time

METAR text: UGTB 230100Z 31016KT 9999 OVC068 23/18 Q1013 NOSIG
Conditions at: UGTB (TBILISI/NOVO-AL , GE) observed 0100 UTC 23 July 2019
Temperature: 23.0°C (73°F)
Dewpoint: 18.0°C (64°F) [RH = 73%]
Pressure (altimeter): 29.91 inches Hg (1013.0 mb)
Winds: from the NW (310 degrees) at 18 MPH (16 knots; 8.2 m/s)
Visibility: 6 or more miles (10+ km)
Ceiling: 6800 feet AGL
Clouds: overcast cloud deck at 6800 feet AGL
Weather: no significant weather observed at this time

METAR text: UGTB 230030Z 31017KT 9999 OVC068 23/18 Q1013 NOSIG
Conditions at: UGTB (TBILISI/NOVO-AL , GE) observed 0030 UTC 23 July 2019
Temperature: 23.0°C (73°F)
Dewpoint: 18.0°C (64°F) [RH = 73%]
Pressure (altimeter): 29.91 inches Hg (1013.0 mb)
Winds: from the NW (310 degrees) at 20 MPH (17 knots; 8.7 m/s)
Visibility: 6 or more miles (10+ km)
Ceiling: 6800 feet AGL
Clouds: overcast cloud deck at 6800 feet AGL
Weather: no significant weather observed at this time

METAR text: UGTB 230000Z 31018KT 9999 SCT067CB 23/18 Q1013 NOSIG
Conditions at: UGTB (TBILISI/NOVO-AL , GE) observed 0000 UTC 23 July 2019
Temperature: 23.0°C (73°F)
Dewpoint: 18.0°C (64°F) [RH = 73%]
Pressure (altimeter): 29.91 inches Hg (1013.0 mb)
Winds: from the NW (310 degrees) at 21 MPH (18 knots; 9.3 m/s)
Visibility: 6 or more miles (10+ km)
Ceiling: at least 12,000 feet AGL
Clouds: scattered clouds at 6700 feet AGL
Weather: no significant weather observed at this time

METAR text: UGTB 222330Z 31019KT 9999 SCT049CB BKN068 23/18 Q1013 NOSIG
Conditions at: UGTB (TBILISI/NOVO-AL , GE) observed 2330 UTC 22 July 2019
Temperature: 23.0°C (73°F)
Dewpoint: 18.0°C (64°F) [RH = 73%]
Pressure (altimeter): 29.91 inches Hg (1013.0 mb)
Winds: from the NW (310 degrees) at 22 MPH (19 knots; 9.8 m/s)
Visibility: 6 or more miles (10+ km)
Ceiling: 6800 feet AGL
Clouds: scattered clouds at 4900 feet AGL
broken clouds at 6800 feet AGL
Weather: no significant weather observed at this time

METAR text: UGTB 222300Z 31021KT 9999 SCT067CB 23/18 Q1013 NOSIG
Conditions at: UGTB (TBILISI/NOVO-AL , GE) observed 2300 UTC 22 July 2019
Temperature: 23.0°C (73°F)
Dewpoint: 18.0°C (64°F) [RH = 73%]
Pressure (altimeter): 29.91 inches Hg (1013.0 mb)
Winds: from the NW (310 degrees) at 24 MPH (21 knots; 10.8 m/s)
Visibility: 6 or more miles (10+ km)
Ceiling: at least 12,000 feet AGL
Clouds: scattered clouds at 6700 feet AGL
Weather: no significant weather observed at this time

METAR text: UGTB 222230Z 31019KT 9999 FEW048 BKN067 23/18 Q1013 NOSIG
Conditions at: UGTB (TBILISI/NOVO-AL , GE) observed 2230 UTC 22 July 2019
Temperature: 23.0°C (73°F)
Dewpoint: 18.0°C (64°F) [RH = 73%]
Pressure (altimeter): 29.91 inches Hg (1013.0 mb)
Winds: from the NW (310 degrees) at 22 MPH (19 knots; 9.8 m/s)
Visibility: 6 or more miles (10+ km)
Ceiling: 6700 feet AGL
Clouds: few clouds at 4800 feet AGL
broken clouds at 6700 feet AGL
Weather: no significant weather observed at this time

METAR text: UGTB 222200Z 32018KT 9999 SCT065CB 24/18 Q1013 NOSIG
Conditions at: UGTB (TBILISI/NOVO-AL , GE) observed 2200 UTC 22 July 2019
Temperature: 24.0°C (75°F)
Dewpoint: 18.0°C (64°F) [RH = 69%]
Pressure (altimeter): 29.91 inches Hg (1013.0 mb)
Winds: from the NW (320 degrees) at 21 MPH (18 knots; 9.3 m/s)
Visibility: 6 or more miles (10+ km)
Ceiling: at least 12,000 feet AGL
Clouds: scattered clouds at 6500 feet AGL
Weather: no significant weather observed at this time

METAR text: UGTB 222130Z 32020KT 9999 SCT065CB 23/18 Q1013 NOSIG
Conditions at: UGTB (TBILISI/NOVO-AL , GE) observed 2130 UTC 22 July 2019
Temperature: 23.0°C (73°F)
Dewpoint: 18.0°C (64°F) [RH = 73%]
Pressure (altimeter): 29.91 inches Hg (1013.0 mb)
Winds: from the NW (320 degrees) at 23 MPH (20 knots; 10.3 m/s)
Visibility: 6 or more miles (10+ km)
Ceiling: at least 12,000 feet AGL
Clouds: scattered clouds at 6500 feet AGL
Weather: no significant weather observed at this time

METAR text: UGTB 222100Z 32023KT 9999 BKN065CB 23/18 Q1013 NOSIG
Conditions at: UGTB (TBILISI/NOVO-AL , GE) observed 2100 UTC 22 July 2019
Temperature: 23.0°C (73°F)
Dewpoint: 18.0°C (64°F) [RH = 73%]
Pressure (altimeter): 29.91 inches Hg (1013.0 mb)
Winds: from the NW (320 degrees) at 26 MPH (23 knots; 11.8 m/s)
Visibility: 6 or more miles (10+ km)
Ceiling: 6500 feet AGL
Clouds: broken clouds at 6500 feet AGL
Weather: no significant weather observed at this time

METAR text: UGTB 222030Z 32023KT 9999 BKN062CB 23/18 Q1013 NOSIG
Conditions at: UGTB (TBILISI/NOVO-AL , GE) observed 2030 UTC 22 July 2019
Temperature: 23.0°C (73°F)
Dewpoint: 18.0°C (64°F) [RH = 73%]
Pressure (altimeter): 29.91 inches Hg (1013.0 mb)
Winds: from the NW (320 degrees) at 26 MPH (23 knots; 11.8 m/s)
Visibility: 6 or more miles (10+ km)
Ceiling: 6200 feet AGL
Clouds: broken clouds at 6200 feet AGL
Weather: no significant weather observed at this time

METAR text: UGTB 222000Z 31023KT 9999 -TSRA BKN062CB 23/18 Q1013 NOSIG
Conditions at: UGTB (TBILISI/NOVO-AL , GE) observed 2000 UTC 22 July 2019
Temperature: 23.0°C (73°F)
Dewpoint: 18.0°C (64°F) [RH = 73%]
Pressure (altimeter): 29.91 inches Hg (1013.0 mb)
Winds: from the NW (310 degrees) at 26 MPH (23 knots; 11.8 m/s)
Visibility: 6 or more miles (10+ km)
Ceiling: 6200 feet AGL
Clouds: broken clouds at 6200 feet AGL
Weather: -TSRA  (light rain associated with thunderstorm(s))

METAR text: UGTB 221930Z 32026G37KT 9999 BKN068CB 23/18 Q1013 R31L/29//55 NOSIG
Conditions at: UGTB (TBILISI/NOVO-AL , GE) observed 1930 UTC 22 July 2019
Temperature: 23.0°C (73°F)
Dewpoint: 18.0°C (64°F) [RH = 73%]
Pressure (altimeter): 29.91 inches Hg (1013.0 mb)
Winds: from the NW (320 degrees) at 30 MPH (26 knots; 13.4 m/s)
gusting to 43 MPH (37 knots; 19.0 m/s)
Visibility: 6 or more miles (10+ km)
Ceiling: 6800 feet AGL
Clouds: broken clouds at 6800 feet AGL
Weather: no significant weather observed at this time

METAR text: UGTB 221900Z 31022KT 9999 -TSRA BKN050CB 22/18 Q1013 NOSIG
Conditions at: UGTB (TBILISI/NOVO-AL , GE) observed 1900 UTC 22 July 2019
Temperature: 22.0°C (72°F)
Dewpoint: 18.0°C (64°F) [RH = 78%]
Pressure (altimeter): 29.91 inches Hg (1013.0 mb)
Winds: from the NW (310 degrees) at 25 MPH (22 knots; 11.3 m/s)
Visibility: 6 or more miles (10+ km)
Ceiling: 5000 feet AGL
Clouds: broken clouds at 5000 feet AGL
Weather: -TSRA  (light rain associated with thunderstorm(s))

METAR text: UGTB 221830Z 31023G33KT 9999 -TSRA BKN050CB 23/18 Q1013 NOSIG
Conditions at: UGTB (TBILISI/NOVO-AL , GE) observed 1830 UTC 22 July 2019
Temperature: 23.0°C (73°F)
Dewpoint: 18.0°C (64°F) [RH = 73%]
Pressure (altimeter): 29.91 inches Hg (1013.0 mb)
Winds: from the NW (310 degrees) at 26 MPH (23 knots; 11.8 m/s)
gusting to 38 MPH (33 knots; 17.0 m/s)
Visibility: 6 or more miles (10+ km)
Ceiling: 5000 feet AGL
Clouds: broken clouds at 5000 feet AGL
Weather: -TSRA  (light rain associated with thunderstorm(s))

METAR text: UGTB 221800Z 31021KT 9999 BKN050CB 24/17 Q1012 NOSIG
Conditions at: UGTB (TBILISI/NOVO-AL , GE) observed 1800 UTC 22 July 2019
Temperature: 24.0°C (75°F)
Dewpoint: 17.0°C (63°F) [RH = 65%]
Pressure (altimeter): 29.88 inches Hg (1012.0 mb)
Winds: from the NW (310 degrees) at 24 MPH (21 knots; 10.8 m/s)
Visibility: 6 or more miles (10+ km)
Ceiling: 5000 feet AGL
Clouds: broken clouds at 5000 feet AGL
Weather: no significant weather observed at this time

METAR text: UGTB 221730Z 31019KT 9999 BKN050CB 25/17 Q1013 NOSIG
Conditions at: UGTB (TBILISI/NOVO-AL , GE) observed 1730 UTC 22 July 2019
Temperature: 25.0°C (77°F)
Dewpoint: 17.0°C (63°F) [RH = 61%]
Pressure (altimeter): 29.91 inches Hg (1013.0 mb)
Winds: from the NW (310 degrees) at 22 MPH (19 knots; 9.8 m/s)
Visibility: 6 or more miles (10+ km)
Ceiling: 5000 feet AGL
Clouds: broken clouds at 5000 feet AGL
Weather: no significant weather observed at this time

METAR text: UGTB 221700Z 32023KT 9999 BKN050CB 25/17 Q1012 NOSIG
Conditions at: UGTB (TBILISI/NOVO-AL , GE) observed 1700 UTC 22 July 2019
Temperature: 25.0°C (77°F)
Dewpoint: 17.0°C (63°F) [RH = 61%]
Pressure (altimeter): 29.88 inches Hg (1012.0 mb)
Winds: from the NW (320 degrees) at 26 MPH (23 knots; 11.8 m/s)
Visibility: 6 or more miles (10+ km)
Ceiling: 5000 feet AGL
Clouds: broken clouds at 5000 feet AGL
Weather: no significant weather observed at this time

METAR text: UGTB 221630Z 31025G36KT 9999 BKN050CB 25/18 Q1013 NOSIG
Conditions at: UGTB (TBILISI/NOVO-AL , GE) observed 1630 UTC 22 July 2019
Temperature: 25.0°C (77°F)
Dewpoint: 18.0°C (64°F) [RH = 65%]
Pressure (altimeter): 29.91 inches Hg (1013.0 mb)
Winds: from the NW (310 degrees) at 29 MPH (25 knots; 12.9 m/s)
gusting to 41 MPH (36 knots; 18.5 m/s)
Visibility: 6 or more miles (10+ km)
Ceiling: 5000 feet AGL
Clouds: broken clouds at 5000 feet AGL
Weather: no significant weather observed at this time

METAR text: UGTB 221600Z 32025G35KT 9999 SCT050CB 26/17 Q1012 NOSIG
Conditions at: UGTB (TBILISI/NOVO-AL , GE) observed 1600 UTC 22 July 2019
Temperature: 26.0°C (79°F)
Dewpoint: 17.0°C (63°F) [RH = 58%]
Pressure (altimeter): 29.88 inches Hg (1012.0 mb)
Winds: from the NW (320 degrees) at 29 MPH (25 knots; 12.9 m/s)
gusting to 40 MPH (35 knots; 18.0 m/s)
Visibility: 6 or more miles (10+ km)
Ceiling: at least 12,000 feet AGL
Clouds: scattered clouds at 5000 feet AGL
Weather: no significant weather observed at this time

METAR text: UGTB 221530Z 32025G35KT 9999 SCT050CB 27/17 Q1011 NOSIG
Conditions at: UGTB (TBILISI/NOVO-AL , GE) observed 1530 UTC 22 July 2019
Temperature: 27.0°C (81°F)
Dewpoint: 17.0°C (63°F) [RH = 54%]
Pressure (altimeter): 29.85 inches Hg (1011.0 mb)
Winds: from the NW (320 degrees) at 29 MPH (25 knots; 12.9 m/s)
gusting to 40 MPH (35 knots; 18.0 m/s)
Visibility: 6 or more miles (10+ km)
Ceiling: at least 12,000 feet AGL
Clouds: scattered clouds at 5000 feet AGL
Weather: no significant weather observed at this time

METAR text: UGTB 221500Z 31025KT 9999 SCT050CB 28/18 Q1011 NOSIG
Conditions at: UGTB (TBILISI/NOVO-AL , GE) observed 1500 UTC 22 July 2019
Temperature: 28.0°C (82°F)
Dewpoint: 18.0°C (64°F) [RH = 55%]
Pressure (altimeter): 29.85 inches Hg (1011.0 mb)
Winds: from the NW (310 degrees) at 29 MPH (25 knots; 12.9 m/s)
Visibility: 6 or more miles (10+ km)
Ceiling: at least 12,000 feet AGL
Clouds: scattered clouds at 5000 feet AGL
Weather: no significant weather observed at this time

METAR text: UGTB 221430Z 32024KT CAVOK 29/18 Q1010 NOSIG
Conditions at: UGTB (TBILISI/NOVO-AL , GE) observed 1430 UTC 22 July 2019
Temperature: 29.0°C (84°F)
Dewpoint: 18.0°C (64°F) [RH = 52%]
Pressure (altimeter): 29.82 inches Hg (1010.0 mb)
Winds: from the NW (320 degrees) at 28 MPH (24 knots; 12.3 m/s)
Visibility: 6 or more miles (10+ km)
Ceiling: ceiling and visibility are OK
Clouds: unknown
Weather: no significant weather observed at this time

METAR text: UGTB 221400Z 32022KT CAVOK 30/18 Q1010 NOSIG
Conditions at: UGTB (TBILISI/NOVO-AL , GE) observed 1400 UTC 22 July 2019
Temperature: 30.0°C (86°F)
Dewpoint: 18.0°C (64°F) [RH = 49%]
Pressure (altimeter): 29.82 inches Hg (1010.0 mb)
Winds: from the NW (320 degrees) at 25 MPH (22 knots; 11.3 m/s)
Visibility: 6 or more miles (10+ km)
Ceiling: ceiling and visibility are OK
Clouds: unknown
Weather: no significant weather observed at this time

METAR text: UGTB 221330Z 31022KT CAVOK 31/18 Q1010 NOSIG
Conditions at: UGTB (TBILISI/NOVO-AL , GE) observed 1330 UTC 22 July 2019
Temperature: 31.0°C (88°F)
Dewpoint: 18.0°C (64°F) [RH = 46%]
Pressure (altimeter): 29.82 inches Hg (1010.0 mb)
Winds: from the NW (310 degrees) at 25 MPH (22 knots; 11.3 m/s)
Visibility: 6 or more miles (10+ km)
Ceiling: ceiling and visibility are OK
Clouds: unknown
Weather: no significant weather observed at this time

METAR text: UGTB 221300Z 31023KT CAVOK 30/18 Q1010 NOSIG
Conditions at: UGTB (TBILISI/NOVO-AL , GE) observed 1300 UTC 22 July 2019
Temperature: 30.0°C (86°F)
Dewpoint: 18.0°C (64°F) [RH = 49%]
Pressure (altimeter): 29.82 inches Hg (1010.0 mb)
Winds: from the NW (310 degrees) at 26 MPH (23 knots; 11.8 m/s)
Visibility: 6 or more miles (10+ km)
Ceiling: ceiling and visibility are OK
Clouds: unknown
Weather: no significant weather observed at this time

METAR text: UGTB 221230Z 31021KT CAVOK 31/18 Q1010 NOSIG
Conditions at: UGTB (TBILISI/NOVO-AL , GE) observed 1230 UTC 22 July 2019
Temperature: 31.0°C (88°F)
Dewpoint: 18.0°C (64°F) [RH = 46%]
Pressure (altimeter): 29.82 inches Hg (1010.0 mb)
Winds: from the NW (310 degrees) at 24 MPH (21 knots; 10.8 m/s)
Visibility: 6 or more miles (10+ km)
Ceiling: ceiling and visibility are OK
Clouds: unknown
Weather: no significant weather observed at this time

METAR text: UGTB 221200Z 31020KT CAVOK 32/18 Q1010 NOSIG
Conditions at: UGTB (TBILISI/NOVO-AL , GE) observed 1200 UTC 22 July 2019
Temperature: 32.0°C (90°F)
Dewpoint: 18.0°C (64°F) [RH = 43%]
Pressure (altimeter): 29.82 inches Hg (1010.0 mb)
Winds: from the NW (310 degrees) at 23 MPH (20 knots; 10.3 m/s)
Visibility: 6 or more miles (10+ km)
Ceiling: ceiling and visibility are OK
Clouds: unknown
Weather: no significant weather observed at this time

METAR text: UGTB 221130Z 31021KT CAVOK 31/18 Q1010 NOSIG
Conditions at: UGTB (TBILISI/NOVO-AL , GE) observed 1130 UTC 22 July 2019
Temperature: 31.0°C (88°F)
Dewpoint: 18.0°C (64°F) [RH = 46%]
Pressure (altimeter): 29.82 inches Hg (1010.0 mb)
Winds: from the NW (310 degrees) at 24 MPH (21 knots; 10.8 m/s)
Visibility: 6 or more miles (10+ km)
Ceiling: ceiling and visibility are OK
Clouds: unknown
Weather: no significant weather observed at this time

METAR text: UGTB 221100Z 31021KT CAVOK 32/19 Q1011 NOSIG
Conditions at: UGTB (TBILISI/NOVO-AL , GE) observed 1100 UTC 22 July 2019
Temperature: 32.0°C (90°F)
Dewpoint: 19.0°C (66°F) [RH = 46%]
Pressure (altimeter): 29.85 inches Hg (1011.0 mb)
Winds: from the NW (310 degrees) at 24 MPH (21 knots; 10.8 m/s)
Visibility: 6 or more miles (10+ km)
Ceiling: ceiling and visibility are OK
Clouds: unknown
Weather: no significant weather observed at this time

METAR text: UGTB 221030Z 31020KT CAVOK 32/18 Q1011 NOSIG
Conditions at: UGTB (TBILISI/NOVO-AL , GE) observed 1030 UTC 22 July 2019
Temperature: 32.0°C (90°F)
Dewpoint: 18.0°C (64°F) [RH = 43%]
Pressure (altimeter): 29.85 inches Hg (1011.0 mb)
Winds: from the NW (310 degrees) at 23 MPH (20 knots; 10.3 m/s)
Visibility: 6 or more miles (10+ km)
Ceiling: ceiling and visibility are OK
Clouds: unknown
Weather: no significant weather observed at this time

METAR text: UGTB 221000Z 31019KT CAVOK 33/18 Q1011 NOSIG
Conditions at: UGTB (TBILISI/NOVO-AL , GE) observed 1000 UTC 22 July 2019
Temperature: 33.0°C (91°F)
Dewpoint: 18.0°C (64°F) [RH = 41%]
Pressure (altimeter): 29.85 inches Hg (1011.0 mb)
Winds: from the NW (310 degrees) at 22 MPH (19 knots; 9.8 m/s)
Visibility: 6 or more miles (10+ km)
Ceiling: ceiling and visibility are OK
Clouds: unknown
Weather: no significant weather observed at this time

METAR text: UGTB 220930Z 31019KT CAVOK 32/18 Q1011 NOSIG
Conditions at: UGTB (TBILISI/NOVO-AL , GE) observed 0930 UTC 22 July 2019
Temperature: 32.0°C (90°F)
Dewpoint: 18.0°C (64°F) [RH = 43%]
Pressure (altimeter): 29.85 inches Hg (1011.0 mb)
Winds: from the NW (310 degrees) at 22 MPH (19 knots; 9.8 m/s)
Visibility: 6 or more miles (10+ km)
Ceiling: ceiling and visibility are OK
Clouds: unknown
Weather: no significant weather observed at this time

METAR text: UGTB 220900Z 31019KT CAVOK 31/18 Q1011 NOSIG
Conditions at: UGTB (TBILISI/NOVO-AL , GE) observed 0900 UTC 22 July 2019
Temperature: 31.0°C (88°F)
Dewpoint: 18.0°C (64°F) [RH = 46%]
Pressure (altimeter): 29.85 inches Hg (1011.0 mb)
Winds: from the NW (310 degrees) at 22 MPH (19 knots; 9.8 m/s)
Visibility: 6 or more miles (10+ km)
Ceiling: ceiling and visibility are OK
Clouds: unknown
Weather: no significant weather observed at this time

METAR text: UGTB 220830Z 31019KT CAVOK 31/18 Q1012 NOSIG
Conditions at: UGTB (TBILISI/NOVO-AL , GE) observed 0830 UTC 22 July 2019
Temperature: 31.0°C (88°F)
Dewpoint: 18.0°C (64°F) [RH = 46%]
Pressure (altimeter): 29.88 inches Hg (1012.0 mb)
Winds: from the NW (310 degrees) at 22 MPH (19 knots; 9.8 m/s)
Visibility: 6 or more miles (10+ km)
Ceiling: ceiling and visibility are OK
Clouds: unknown
Weather: no significant weather observed at this time

METAR text: UGTB 220800Z 31021KT CAVOK 29/18 Q1012 NOSIG
Conditions at: UGTB (TBILISI/NOVO-AL , GE) observed 0800 UTC 22 July 2019
Temperature: 29.0°C (84°F)
Dewpoint: 18.0°C (64°F) [RH = 52%]
Pressure (altimeter): 29.88 inches Hg (1012.0 mb)
Winds: from the NW (310 degrees) at 24 MPH (21 knots; 10.8 m/s)
Visibility: 6 or more miles (10+ km)
Ceiling: ceiling and visibility are OK
Clouds: unknown
Weather: no significant weather observed at this time

METAR text: UGTB 220730Z 32020KT CAVOK 29/18 Q1012 NOSIG METAR
Conditions at: UGTB (TBILISI/NOVO-AL , GE) observed 0730 UTC 22 July 2019
Temperature: 29.0°C (84°F)
Dewpoint: 18.0°C (64°F) [RH = 52%]
Pressure (altimeter): 29.88 inches Hg (1012.0 mb)
Winds: from the NW (320 degrees) at 23 MPH (20 knots; 10.3 m/s)
Visibility: 6 or more miles (10+ km)
Ceiling: ceiling and visibility are OK
Clouds: unknown
Weather: no significant weather observed at this time

METAR text: UGTB 220700Z 31021KT CAVOK 28/18 Q1012 NOSIG
Conditions at: UGTB (TBILISI/NOVO-AL , GE) observed 0700 UTC 22 July 2019
Temperature: 28.0°C (82°F)
Dewpoint: 18.0°C (64°F) [RH = 55%]
Pressure (altimeter): 29.88 inches Hg (1012.0 mb)
Winds: from the NW (310 degrees) at 24 MPH (21 knots; 10.8 m/s)
Visibility: 6 or more miles (10+ km)
Ceiling: ceiling and visibility are OK
Clouds: unknown
Weather: no significant weather observed at this time

METAR text: UGTB 220630Z 31022KT CAVOK 27/18 Q1013 NOSIG
Conditions at: UGTB (TBILISI/NOVO-AL , GE) observed 0630 UTC 22 July 2019
Temperature: 27.0°C (81°F)
Dewpoint: 18.0°C (64°F) [RH = 58%]
Pressure (altimeter): 29.91 inches Hg (1013.0 mb)
Winds: from the NW (310 degrees) at 25 MPH (22 knots; 11.3 m/s)
Visibility: 6 or more miles (10+ km)
Ceiling: ceiling and visibility are OK
Clouds: unknown
Weather: no significant weather observed at this time

METAR text: UGTB 220600Z 31021KT CAVOK 26/18 Q1013 NOSIG
Conditions at: UGTB (TBILISI/NOVO-AL , GE) observed 0600 UTC 22 July 2019
Temperature: 26.0°C (79°F)
Dewpoint: 18.0°C (64°F) [RH = 61%]
Pressure (altimeter): 29.91 inches Hg (1013.0 mb)
Winds: from the NW (310 degrees) at 24 MPH (21 knots; 10.8 m/s)
Visibility: 6 or more miles (10+ km)
Ceiling: ceiling and visibility are OK
Clouds: unknown
Weather: no significant weather observed at this time

METAR text: UGTB 220530Z 31021KT CAVOK 26/18 Q1013 NOSIG
Conditions at: UGTB (TBILISI/NOVO-AL , GE) observed 0530 UTC 22 July 2019
Temperature: 26.0°C (79°F)
Dewpoint: 18.0°C (64°F) [RH = 61%]
Pressure (altimeter): 29.91 inches Hg (1013.0 mb)
Winds: from the NW (310 degrees) at 24 MPH (21 knots; 10.8 m/s)
Visibility: 6 or more miles (10+ km)
Ceiling: ceiling and visibility are OK
Clouds: unknown
Weather: no significant weather observed at this time

METAR text: UGTB 220500Z 31020KT CAVOK 25/18 Q1013 NOSIG
Conditions at: UGTB (TBILISI/NOVO-AL , GE) observed 0500 UTC 22 July 2019
Temperature: 25.0°C (77°F)
Dewpoint: 18.0°C (64°F) [RH = 65%]
Pressure (altimeter): 29.91 inches Hg (1013.0 mb)
Winds: from the NW (310 degrees) at 23 MPH (20 knots; 10.3 m/s)
Visibility: 6 or more miles (10+ km)
Ceiling: ceiling and visibility are OK
Clouds: unknown
Weather: no significant weather observed at this time

METAR text: UGTB 220430Z 31020KT CAVOK 24/18 Q1013 NOSIG
Conditions at: UGTB (TBILISI/NOVO-AL , GE) observed 0430 UTC 22 July 2019
Temperature: 24.0°C (75°F)
Dewpoint: 18.0°C (64°F) [RH = 69%]
Pressure (altimeter): 29.91 inches Hg (1013.0 mb)
Winds: from the NW (310 degrees) at 23 MPH (20 knots; 10.3 m/s)
Visibility: 6 or more miles (10+ km)
Ceiling: ceiling and visibility are OK
Clouds: unknown
Weather: no significant weather observed at this time

METAR text: UGTB 220400Z 31021KT CAVOK 24/18 Q1014 NOSIG
Conditions at: UGTB (TBILISI/NOVO-AL , GE) observed 0400 UTC 22 July 2019
Temperature: 24.0°C (75°F)
Dewpoint: 18.0°C (64°F) [RH = 69%]
Pressure (altimeter): 29.94 inches Hg (1014.0 mb)
Winds: from the NW (310 degrees) at 24 MPH (21 knots; 10.8 m/s)
Visibility: 6 or more miles (10+ km)
Ceiling: ceiling and visibility are OK
Clouds: unknown
Weather: no significant weather observed at this time

METAR text: UGTB 220330Z 31020KT CAVOK 23/18 Q1014 NOSIG
Conditions at: UGTB (TBILISI/NOVO-AL , GE) observed 0330 UTC 22 July 2019
Temperature: 23.0°C (73°F)
Dewpoint: 18.0°C (64°F) [RH = 73%]
Pressure (altimeter): 29.94 inches Hg (1014.0 mb)
Winds: from the NW (310 degrees) at 23 MPH (20 knots; 10.3 m/s)
Visibility: 6 or more miles (10+ km)
Ceiling: ceiling and visibility are OK
Clouds: unknown
Weather: no significant weather observed at this time

METAR text: UGTB 220300Z 31019G29KT CAVOK 23/18 Q1013 NOSIG
Conditions at: UGTB (TBILISI/NOVO-AL , GE) observed 0300 UTC 22 July 2019
Temperature: 23.0°C (73°F)
Dewpoint: 18.0°C (64°F) [RH = 73%]
Pressure (altimeter): 29.91 inches Hg (1013.0 mb)
Winds: from the NW (310 degrees) at 22 MPH (19 knots; 9.8 m/s)
gusting to 33 MPH (29 knots; 14.9 m/s)
Visibility: 6 or more miles (10+ km)
Ceiling: ceiling and visibility are OK
Clouds: unknown
Weather: no significant weather observed at this time

METAR text: UGTB 220230Z 31021KT CAVOK 23/18 Q1014 NOSIG
Conditions at: UGTB (TBILISI/NOVO-AL , GE) observed 0230 UTC 22 July 2019
Temperature: 23.0°C (73°F)
Dewpoint: 18.0°C (64°F) [RH = 73%]
Pressure (altimeter): 29.94 inches Hg (1014.0 mb)
Winds: from the NW (310 degrees) at 24 MPH (21 knots; 10.8 m/s)
Visibility: 6 or more miles (10+ km)
Ceiling: ceiling and visibility are OK
Clouds: unknown
Weather: no significant weather observed at this time

METAR text: UGTB 220200Z 31020KT CAVOK 23/18 Q1014 NOSIG
Conditions at: UGTB (TBILISI/NOVO-AL , GE) observed 0200 UTC 22 July 2019
Temperature: 23.0°C (73°F)
Dewpoint: 18.0°C (64°F) [RH = 73%]
Pressure (altimeter): 29.94 inches Hg (1014.0 mb)
Winds: from the NW (310 degrees) at 23 MPH (20 knots; 10.3 m/s)
Visibility: 6 or more miles (10+ km)
Ceiling: ceiling and visibility are OK
Clouds: unknown
Weather: no significant weather observed at this time

METAR text: UGTB 220130Z 31020KT CAVOK 23/18 Q1014 NOSIG
Conditions at: UGTB (TBILISI/NOVO-AL , GE) observed 0130 UTC 22 July 2019
Temperature: 23.0°C (73°F)
Dewpoint: 18.0°C (64°F) [RH = 73%]
Pressure (altimeter): 29.94 inches Hg (1014.0 mb)
Winds: from the NW (310 degrees) at 23 MPH (20 knots; 10.3 m/s)
Visibility: 6 or more miles (10+ km)
Ceiling: ceiling and visibility are OK
Clouds: unknown
Weather: no significant weather observed at this time

METAR text: UGTB 220100Z 31019KT CAVOK 23/18 Q1014 NOSIG
Conditions at: UGTB (TBILISI/NOVO-AL , GE) observed 0100 UTC 22 July 2019
Temperature: 23.0°C (73°F)
Dewpoint: 18.0°C (64°F) [RH = 73%]
Pressure (altimeter): 29.94 inches Hg (1014.0 mb)
Winds: from the NW (310 degrees) at 22 MPH (19 knots; 9.8 m/s)
Visibility: 6 or more miles (10+ km)
Ceiling: ceiling and visibility are OK
Clouds: unknown
Weather: no significant weather observed at this time

METAR text: UGTB 220030Z 31021KT CAVOK 23/18 Q1014 NOSIG
Conditions at: UGTB (TBILISI/NOVO-AL , GE) observed 0030 UTC 22 July 2019
Temperature: 23.0°C (73°F)
Dewpoint: 18.0°C (64°F) [RH = 73%]
Pressure (altimeter): 29.94 inches Hg (1014.0 mb)
Winds: from the NW (310 degrees) at 24 MPH (21 knots; 10.8 m/s)
Visibility: 6 or more miles (10+ km)
Ceiling: ceiling and visibility are OK
Clouds: unknown
Weather: no significant weather observed at this time

METAR text: UGTB 220000Z 31019KT CAVOK 24/18 Q1014 NOSIG
Conditions at: UGTB (TBILISI/NOVO-AL , GE) observed 0000 UTC 22 July 2019
Temperature: 24.0°C (75°F)
Dewpoint: 18.0°C (64°F) [RH = 69%]
Pressure (altimeter): 29.94 inches Hg (1014.0 mb)
Winds: from the NW (310 degrees) at 22 MPH (19 knots; 9.8 m/s)
Visibility: 6 or more miles (10+ km)
Ceiling: ceiling and visibility are OK
Clouds: unknown
Weather: no significant weather observed at this time

METAR text: UGTB 212330Z 31019KT CAVOK 23/18 Q1014 NOSIG
Conditions at: UGTB (TBILISI/NOVO-AL , GE) observed 2330 UTC 21 July 2019
Temperature: 23.0°C (73°F)
Dewpoint: 18.0°C (64°F) [RH = 73%]
Pressure (altimeter): 29.94 inches Hg (1014.0 mb)
Winds: from the NW (310 degrees) at 22 MPH (19 knots; 9.8 m/s)
Visibility: 6 or more miles (10+ km)
Ceiling: ceiling and visibility are OK
Clouds: unknown
Weather: no significant weather observed at this time

METAR text: UGTB 212300Z 31018KT CAVOK 23/18 Q1014 NOSIG
Conditions at: UGTB (TBILISI/NOVO-AL , GE) observed 2300 UTC 21 July 2019
Temperature: 23.0°C (73°F)
Dewpoint: 18.0°C (64°F) [RH = 73%]
Pressure (altimeter): 29.94 inches Hg (1014.0 mb)
Winds: from the NW (310 degrees) at 21 MPH (18 knots; 9.3 m/s)
Visibility: 6 or more miles (10+ km)
Ceiling: ceiling and visibility are OK
Clouds: unknown
Weather: no significant weather observed at this time

METAR text: UGTB 212230Z 31020KT 9999 SCT050CB 24/18 Q1014 NOSIG
Conditions at: UGTB (TBILISI/NOVO-AL , GE) observed 2230 UTC 21 July 2019
Temperature: 24.0°C (75°F)
Dewpoint: 18.0°C (64°F) [RH = 69%]
Pressure (altimeter): 29.94 inches Hg (1014.0 mb)
Winds: from the NW (310 degrees) at 23 MPH (20 knots; 10.3 m/s)
Visibility: 6 or more miles (10+ km)
Ceiling: at least 12,000 feet AGL
Clouds: scattered clouds at 5000 feet AGL
Weather: no significant weather observed at this time

METAR text: UGTB 212200Z 31019KT 9999 SCT050CB 24/18 Q1014 NOSIG
Conditions at: UGTB (TBILISI/NOVO-AL , GE) observed 2200 UTC 21 July 2019
Temperature: 24.0°C (75°F)
Dewpoint: 18.0°C (64°F) [RH = 69%]
Pressure (altimeter): 29.94 inches Hg (1014.0 mb)
Winds: from the NW (310 degrees) at 22 MPH (19 knots; 9.8 m/s)
Visibility: 6 or more miles (10+ km)
Ceiling: at least 12,000 feet AGL
Clouds: scattered clouds at 5000 feet AGL
Weather: no significant weather observed at this time

Forecast for: UGTB (TBILISI/NOVO-AL , GE)
Text: TAF UGTB 230500Z 2306/2406 32014KT 9999 SCT050CB BKN065 TX32/2311Z TN22/2402Z
Forecast period: 0600 to 0900 UTC 23 July 2019
Forecast type: FROM: standard forecast or significant change
Winds: from the NW (320 degrees) at 16 MPH (14 knots; 7.2 m/s)
Visibility: 6 or more miles 10+ km)
Ceiling: 6500 feet AGL
Clouds: scattered clouds at 5000 feet AGL
broken clouds at 6500 feet AGL
Weather: no significant weather forecast for this period
Text: BECMG 2309/2311 VRB02KT
Forecast period: 0900 to 2100 UTC 23 July 2019
Forecast type: BECOMING: Conditions expected to become as follows by 1100 UTC 23 July 2019
Winds: variable direction winds at 2 MPH (2 knots; 1.0 m/s)
Visibility: 6 or more miles 10+ km)
Ceiling: 6500 feet AGL
Clouds: scattered clouds at 5000 feet AGL
broken clouds at 6500 feet AGL
Weather: no significant weather forecast for this period
Text: PROB40
Forecast period: 1300 to 2000 UTC 23 July 2019
Forecast type: TEMPORARY: The following changes expected for less than half the time period
Visibility: missing
Ceiling: 4500 feet AGL
Clouds: broken clouds at 4500 feet AGL
Weather: TSRA  (rain associated with thunderstorm(s))
Text: TEMPO 2313/2320 TSRA BKN045CB
Forecast period: 2100 UTC 23 July 2019 to 0600 UTC 24 July 2019
Forecast type: BECOMING: Conditions expected to become as follows by 2300 UTC 23 July 2019
Winds: from the NW (320 degrees) at 18 MPH (16 knots; 8.2 m/s)
Visibility: 6 or more miles 10+ km)
Ceiling: 6500 feet AGL
Clouds: scattered clouds at 5000 feet AGL
broken clouds at 6500 feet AGL
Weather: no significant weather forecast for this period